createdAt,value
2022-09-15T00:00:59.163Z,95987.81
2022-09-15T00:03:25.796Z,95988.78
2022-09-15T00:05:53.001Z,95977.19
2022-09-15T00:08:19.638Z,95977.75
2022-09-15T00:10:57.722Z,95998.69
2022-09-15T00:13:24.664Z,95982.16
2022-09-15T00:15:51.444Z,95974.84
2022-09-15T00:18:18.153Z,95965.88
2022-09-15T00:20:45.340Z,96010.16
2022-09-15T00:23:13.040Z,95971.41
2022-09-15T00:25:47.619Z,95965.81
2022-09-15T00:28:15.210Z,96006.28
2022-09-15T00:30:47.032Z,95995.97
2022-09-15T00:33:14.364Z,95988.94
2022-09-15T00:35:42.969Z,95972.59
2022-09-15T00:38:10.098Z,95966.00
2022-09-15T00:40:52.943Z,95947.34
2022-09-15T00:43:21.535Z,95946.56
2022-09-15T00:45:48.127Z,95928.59
2022-09-15T00:48:21.681Z,95957.78
2022-09-15T00:50:51.989Z,95936.13
2022-09-15T00:53:18.724Z,95939.91
2022-09-15T00:55:48.632Z,95953.53
2022-09-15T00:58:25.009Z,95936.34
2022-09-15T01:00:55.075Z,95965.00
2022-09-15T01:03:23.312Z,95960.13
2022-09-15T01:05:53.057Z,95923.09
2022-09-15T01:08:36.846Z,95942.94
2022-09-15T01:11:03.593Z,95939.84
2022-09-15T01:13:30.369Z,95953.47
2022-09-15T01:16:05.956Z,95946.50
2022-09-15T01:19:03.542Z,95940.66
2022-09-15T01:22:03.533Z,95929.00
2022-09-15T01:25:01.271Z,95920.78
2022-09-15T01:27:48.875Z,95952.88
2022-09-15T01:30:24.981Z,95938.78
2022-09-15T01:33:10.141Z,95954.28
2022-09-15T01:35:40.382Z,95938.50
2022-09-15T01:38:15.744Z,95947.41
2022-09-15T01:40:45.458Z,95912.28
2022-09-15T01:43:12.098Z,95952.84
2022-09-15T01:45:39.287Z,95932.16
2022-09-15T01:48:05.979Z,95912.06
2022-09-15T01:50:38.904Z,95929.56
2022-09-15T01:53:08.542Z,95902.41
2022-09-15T01:55:52.666Z,95934.72
2022-09-15T01:58:19.311Z,95941.75
2022-09-15T02:00:49.502Z,95924.63
2022-09-15T02:03:46.376Z,95921.13
2022-09-15T02:06:37.513Z,95935.13
2022-09-15T02:09:43.018Z,95921.25
2022-09-15T02:12:41.339Z,95943.38
2022-09-15T02:15:11.440Z,95915.44
2022-09-15T02:17:42.784Z,95928.25
2022-09-15T02:20:09.685Z,95928.13
2022-09-15T02:22:37.240Z,95906.69
2022-09-15T02:25:14.152Z,95909.41
2022-09-15T02:27:43.221Z,95928.19
2022-09-15T02:30:11.299Z,95921.84
2022-09-15T02:32:38.764Z,95941.81
2022-09-15T02:35:06.132Z,95932.06
2022-09-15T02:37:32.758Z,95925.53
2022-09-15T02:39:59.666Z,95957.13
2022-09-15T02:42:27.509Z,95960.06
2022-09-15T02:44:54.500Z,95948.09
2022-09-15T02:47:21.541Z,95945.38
2022-09-15T02:49:48.185Z,95922.25
2022-09-15T02:52:14.840Z,95912.44
2022-09-15T02:54:41.462Z,95921.38
2022-09-15T02:57:08.094Z,95931.41
2022-09-15T02:59:34.790Z,95928.00
2022-09-15T03:02:01.440Z,95935.63
2022-09-15T03:04:28.069Z,95936.09
2022-09-15T03:06:54.720Z,95910.88
2022-09-15T03:09:21.654Z,95907.16
2022-09-15T03:11:48.262Z,95894.81
2022-09-15T03:14:15.884Z,95894.97
2022-09-15T03:16:42.582Z,95932.78
2022-09-15T03:19:09.225Z,95905.41
2022-09-15T03:21:36.423Z,95918.94
2022-09-15T03:24:03.015Z,95914.75
2022-09-15T03:26:29.646Z,95930.69
2022-09-15T03:28:56.223Z,95909.22
2022-09-15T03:31:22.847Z,95916.59
2022-09-15T03:33:49.741Z,95920.56
2022-09-15T03:36:16.598Z,95904.22
2022-09-15T03:38:43.261Z,95926.91
2022-09-15T03:41:12.970Z,95929.63
2022-09-15T03:43:39.936Z,95918.69
2022-09-15T03:46:07.129Z,95919.31
2022-09-15T03:48:34.834Z,95918.09
2022-09-15T03:51:02.501Z,95913.38
2022-09-15T03:53:31.670Z,95956.97
2022-09-15T03:56:18.894Z,95944.38
2022-09-15T03:58:45.640Z,95918.25
2022-09-15T04:01:12.706Z,95929.91
2022-09-15T04:03:45.214Z,95919.44
2022-09-15T04:06:13.248Z,95923.69
2022-09-15T04:08:39.850Z,95909.94
2022-09-15T04:11:07.347Z,95913.44
2022-09-15T04:13:34.855Z,95901.69
2022-09-15T04:16:03.036Z,95869.47
2022-09-15T04:18:30.211Z,95902.69
2022-09-15T04:21:01.244Z,95901.84
2022-09-15T04:23:28.301Z,95887.38
2022-09-15T04:25:58.025Z,95924.81
2022-09-15T04:28:25.466Z,95881.06
2022-09-15T04:30:53.081Z,95913.84
2022-09-15T04:33:20.033Z,95907.47
2022-09-15T04:35:46.790Z,95904.25
2022-09-15T04:38:13.421Z,95895.28
2022-09-15T04:40:40.070Z,95896.59
2022-09-15T04:43:06.764Z,95885.63
2022-09-15T04:45:33.411Z,95885.63
2022-09-15T04:48:00.109Z,95899.53
2022-09-15T04:50:26.759Z,95878.63
2022-09-15T04:52:53.374Z,95907.41
2022-09-15T04:55:20.043Z,95885.38
2022-09-15T04:57:46.674Z,95893.53
2022-09-15T05:00:13.840Z,95895.97
2022-09-15T05:02:40.432Z,95898.59
2022-09-15T05:05:07.777Z,95896.03
2022-09-15T05:07:34.425Z,95885.88
2022-09-15T05:10:01.076Z,95886.66
2022-09-15T05:12:27.700Z,95891.38
2022-09-15T05:14:54.374Z,95894.16
2022-09-15T05:17:24.057Z,95911.72
2022-09-15T05:19:53.267Z,95887.00
2022-09-15T05:22:23.707Z,95885.16
2022-09-15T05:24:50.452Z,95898.56
2022-09-15T05:27:17.132Z,95871.06
2022-09-15T05:29:43.779Z,95882.88
2022-09-15T05:32:10.757Z,95866.25
2022-09-15T05:34:37.561Z,95864.03
2022-09-15T05:37:04.342Z,95894.25
2022-09-15T05:39:30.933Z,95889.66
2022-09-15T05:41:57.502Z,95916.72
2022-09-15T05:44:24.666Z,95883.28
2022-09-15T05:46:51.637Z,95899.28
2022-09-15T05:49:18.343Z,95911.09
2022-09-15T05:51:44.962Z,95899.41
2022-09-15T05:54:11.655Z,95863.69
2022-09-15T05:56:38.620Z,95898.78
2022-09-15T05:59:05.289Z,95895.69
2022-09-15T06:01:32.031Z,95899.91
2022-09-15T06:03:58.742Z,95880.50
2022-09-15T06:06:25.789Z,95887.22
2022-09-15T06:08:58.055Z,95910.94
2022-09-15T06:11:30.039Z,95898.66
2022-09-15T06:13:59.745Z,95884.84
2022-09-15T06:19:17.022Z,95891.88
2022-09-15T06:21:43.742Z,95900.47
2022-09-15T06:24:11.318Z,95893.00
2022-09-15T06:26:37.922Z,95901.69
2022-09-15T06:29:05.060Z,95899.69
2022-09-15T06:31:32.652Z,95904.75
2022-09-15T06:33:59.458Z,95925.97
2022-09-15T06:36:27.352Z,95935.31
2022-09-15T06:38:53.991Z,95923.63
2022-09-15T06:41:20.904Z,95920.97
2022-09-15T06:43:47.890Z,95911.94
2022-09-15T06:46:16.592Z,95910.50
2022-09-15T06:48:46.330Z,95930.44
2022-09-15T06:51:16.460Z,95929.94
2022-09-15T06:53:43.096Z,95923.25
2022-09-15T06:56:16.800Z,95921.88
2022-09-15T06:58:43.738Z,95937.31
2022-09-15T07:01:14.893Z,95930.47
2022-09-15T07:03:43.010Z,95923.63
2022-09-15T07:06:09.743Z,95933.47
2022-09-15T07:08:36.439Z,95934.75
2022-09-15T07:11:03.084Z,95879.41
2022-09-15T07:13:30.027Z,95931.34
2022-09-15T07:15:57.873Z,95933.41
2022-09-15T07:18:24.619Z,95944.72
2022-09-15T07:20:51.290Z,95940.53
2022-09-15T07:23:18.339Z,95951.47
2022-09-15T07:25:45.162Z,95926.19
2022-09-15T07:28:12.244Z,95937.63
2022-09-15T07:30:39.150Z,95943.63
2022-09-15T07:33:12.428Z,95942.41
2022-09-15T07:35:42.508Z,95946.91
2022-09-15T07:38:09.213Z,95952.94
2022-09-15T07:40:36.006Z,95943.94
2022-09-15T07:43:02.707Z,95956.41
2022-09-15T07:45:29.425Z,95963.81
2022-09-15T07:47:56.138Z,95949.88
2022-09-15T07:50:23.493Z,95970.53
2022-09-15T07:52:50.107Z,95961.97
2022-09-15T07:55:16.800Z,95960.44
2022-09-15T07:57:43.328Z,95969.16
2022-09-15T08:00:10.449Z,95979.28
2022-09-15T08:02:37.068Z,95962.91
2022-09-15T08:05:03.796Z,95966.84
2022-09-15T08:07:30.582Z,95949.47
2022-09-15T08:09:57.106Z,95976.38
2022-09-15T08:12:24.058Z,95960.84
2022-09-15T08:14:50.705Z,95962.47
2022-09-15T08:17:17.332Z,95948.16
2022-09-15T08:19:45.068Z,95967.47
2022-09-15T08:22:11.989Z,95959.59
2022-09-15T08:24:38.651Z,95961.00
2022-09-15T08:27:05.251Z,95961.78
2022-09-15T08:29:32.389Z,95956.28
2022-09-15T08:31:59.157Z,95957.88
2022-09-15T08:34:26.012Z,95958.25
2022-09-15T08:36:52.559Z,95979.00
2022-09-15T08:39:19.201Z,95982.94
2022-09-15T08:41:47.821Z,95960.22
2022-09-15T08:44:29.353Z,95969.75
2022-09-15T08:47:11.171Z,95974.22
2022-09-15T08:49:56.535Z,95953.72
2022-09-15T08:52:28.403Z,95975.53
2022-09-15T08:54:57.005Z,96011.97
2022-09-15T08:57:23.954Z,95991.59
2022-09-15T08:59:50.619Z,95976.28
2022-09-15T09:02:39.809Z,95964.13
2022-09-15T09:05:19.329Z,95966.13
2022-09-15T09:08:15.200Z,95971.47
2022-09-15T09:11:01.845Z,95969.09
2022-09-15T09:13:43.066Z,95958.91
2022-09-15T09:16:38.220Z,95960.81
2022-09-15T09:19:50.294Z,95964.31
2022-09-15T09:22:19.994Z,95978.63
2022-09-15T09:24:48.112Z,95990.41
2022-09-15T09:27:16.536Z,95980.72
2022-09-15T09:29:45.219Z,95956.53
2022-09-15T09:32:21.639Z,95967.06
2022-09-15T09:35:06.331Z,95982.78
2022-09-15T09:37:33.260Z,95996.00
2022-09-15T09:40:00.595Z,96002.63
2022-09-15T09:42:29.814Z,95986.25
2022-09-15T09:44:58.318Z,95982.97
2022-09-15T09:47:29.233Z,95981.31
2022-09-15T09:49:55.893Z,95968.28
2022-09-15T09:52:35.957Z,95977.28
2022-09-15T09:58:12.802Z,95987.16
2022-09-15T10:00:40.364Z,95980.75
2022-09-15T10:03:28.141Z,95992.91
2022-09-15T10:06:11.381Z,95978.34
2022-09-15T10:08:38.130Z,95967.63
2022-09-15T10:11:06.485Z,95953.84
2022-09-15T10:13:34.646Z,95968.00
2022-09-15T10:16:02.453Z,95928.91
2022-09-15T10:18:35.188Z,95975.22
2022-09-15T10:21:02.540Z,95972.44
2022-09-15T10:23:30.509Z,95978.38
2022-09-15T10:26:18.019Z,95956.06
2022-09-15T10:28:44.893Z,95986.97
2022-09-15T10:31:12.694Z,95984.75
2022-09-15T10:33:43.266Z,95966.34
2022-09-15T10:36:14.296Z,95968.09
2022-09-15T10:38:45.914Z,95975.50
2022-09-15T10:41:28.352Z,95969.50
2022-09-15T10:44:16.561Z,95969.53
2022-09-15T10:46:48.891Z,95993.28
2022-09-15T10:49:34.230Z,95964.38
2022-09-15T10:52:22.739Z,95969.41
2022-09-15T10:55:12.821Z,96002.13
2022-09-15T10:58:14.935Z,95962.25
2022-09-15T11:00:47.455Z,95975.00
2022-09-15T11:03:16.990Z,95985.84
2022-09-15T11:06:15.422Z,95949.72
2022-09-15T11:08:44.998Z,95941.19
2022-09-15T11:11:27.347Z,95983.47
2022-09-15T11:14:05.015Z,95978.91
2022-09-15T11:16:45.151Z,96000.88
2022-09-15T11:19:22.791Z,95985.13
2022-09-15T11:22:02.290Z,95969.41
2022-09-15T11:24:32.071Z,95974.25
2022-09-15T11:26:58.620Z,95967.16
2022-09-15T11:29:55.260Z,95986.06
2022-09-15T11:32:26.066Z,95981.41
2022-09-15T11:35:02.549Z,95962.91
2022-09-15T11:37:48.927Z,95959.09
2022-09-15T11:40:25.743Z,95977.78
2022-09-15T11:42:54.890Z,95978.59
2022-09-15T11:45:24.665Z,95983.28
2022-09-15T11:47:54.420Z,95975.25
2022-09-15T11:50:36.962Z,95961.44
2022-09-15T11:53:11.519Z,95966.25
2022-09-15T11:55:39.268Z,95979.63
2022-09-15T11:58:26.067Z,95956.97
2022-09-15T12:01:10.948Z,95982.19
2022-09-15T12:03:49.938Z,95975.16
2022-09-15T12:06:22.489Z,95997.59
2022-09-15T12:08:50.379Z,95965.00
2022-09-15T12:11:20.084Z,95986.88
2022-09-15T12:13:46.780Z,95980.25
2022-09-15T12:16:13.526Z,95997.06
2022-09-15T12:19:29.349Z,96007.31
2022-09-15T12:22:03.245Z,96004.94
2022-09-15T12:24:37.030Z,96003.41
2022-09-15T12:27:03.774Z,95994.50
2022-09-15T12:29:38.100Z,96013.75
2022-09-15T12:32:25.305Z,96012.84
2022-09-15T12:35:14.082Z,96012.88
2022-09-15T12:37:46.953Z,96023.66
2022-09-15T12:40:41.481Z,95994.66
2022-09-15T12:43:11.192Z,95991.03
2022-09-15T12:45:37.856Z,96004.25
2022-09-15T12:48:06.853Z,96021.22
2022-09-15T12:50:37.656Z,96009.22
2022-09-15T12:53:19.190Z,96006.28
2022-09-15T12:56:08.510Z,95994.28
2022-09-15T12:58:37.801Z,96015.75
2022-09-15T13:01:25.065Z,96016.09
2022-09-15T13:03:51.644Z,95982.06
2022-09-15T13:06:31.165Z,96030.09
2022-09-15T13:09:03.716Z,95996.72
2022-09-15T13:11:33.210Z,96006.16
2022-09-15T13:14:05.777Z,96005.00
2022-09-15T13:16:41.290Z,96009.34
2022-09-15T13:19:30.385Z,95987.88
2022-09-15T13:22:12.417Z,95975.81
2022-09-15T13:24:46.365Z,95996.84
2022-09-15T13:27:13.825Z,95989.03
2022-09-15T13:30:03.889Z,95991.78
2022-09-15T13:32:44.911Z,95999.44
2022-09-15T13:35:29.794Z,95966.63
2022-09-15T13:38:20.123Z,96004.69
2022-09-15T13:40:57.598Z,95946.16
2022-09-15T13:43:57.997Z,95959.78
2022-09-15T13:46:27.647Z,95951.72
2022-09-15T13:49:10.189Z,95954.50
2022-09-15T13:51:36.941Z,95953.44
2022-09-15T13:54:06.127Z,95934.94
2022-09-15T13:56:33.917Z,95979.72
2022-09-15T13:59:06.658Z,95967.56
2022-09-15T14:01:41.289Z,95933.19
2022-09-15T14:04:12.389Z,95948.38
2022-09-15T14:06:43.838Z,95931.81
2022-09-15T14:09:18.942Z,95956.59
2022-09-15T14:11:48.006Z,95928.38
2022-09-15T14:14:34.712Z,95949.28
2022-09-15T14:17:01.409Z,95938.06
2022-09-15T14:19:31.870Z,95926.13
2022-09-15T14:21:58.909Z,95958.06
2022-09-15T14:24:31.608Z,95937.94
2022-09-15T14:27:07.348Z,95949.97
2022-09-15T14:29:34.044Z,95927.03
2022-09-15T14:32:01.141Z,95935.41
2022-09-15T14:34:30.065Z,95940.75
2022-09-15T14:37:05.233Z,95962.59
2022-09-15T14:39:31.936Z,95970.03
2022-09-15T14:47:28.145Z,95978.16
2022-09-15T14:50:13.162Z,96007.03
2022-09-15T14:52:52.745Z,95988.28
2022-09-15T14:55:29.150Z,95976.81
2022-09-15T14:57:59.341Z,95983.72
2022-09-15T15:00:27.809Z,96018.06
2022-09-15T15:03:14.899Z,96005.81
2022-09-15T15:06:28.384Z,95984.03
2022-09-15T15:08:57.885Z,96004.97
2022-09-15T15:11:25.013Z,96012.38
2022-09-15T15:13:51.955Z,96000.69
2022-09-15T15:16:29.697Z,96023.13
2022-09-15T15:18:56.555Z,96035.72
2022-09-15T15:21:35.395Z,96023.63
2022-09-15T15:24:13.223Z,96042.06
2022-09-15T15:26:41.407Z,96048.56
2022-09-15T15:29:09.227Z,96058.41
2022-09-15T15:31:38.541Z,96054.91
2022-09-15T15:34:06.370Z,96043.50
2022-09-15T15:36:33.659Z,96054.53
2022-09-15T15:39:01.252Z,96055.78
2022-09-15T15:41:29.372Z,96069.56
2022-09-15T15:44:06.774Z,96061.19
2022-09-15T15:47:15.560Z,96079.69
2022-09-15T15:50:02.303Z,96065.03
2022-09-15T15:52:28.840Z,96080.44
2022-09-15T15:54:55.463Z,96095.38
2022-09-15T15:57:25.139Z,96081.97
2022-09-15T15:59:54.283Z,96081.91
2022-09-15T16:02:23.856Z,96089.94
2022-09-15T16:04:50.682Z,96077.31
2022-09-15T16:07:19.247Z,96110.78
2022-09-15T16:09:46.197Z,96103.16
2022-09-15T16:12:12.855Z,96105.09
2022-09-15T16:14:39.460Z,96101.91
2022-09-15T16:17:06.239Z,96106.31
2022-09-15T16:19:32.819Z,96113.56
2022-09-15T16:21:59.381Z,96134.09
2022-09-15T16:24:25.913Z,96140.44
2022-09-15T16:26:53.893Z,96113.16
2022-09-15T16:29:20.676Z,96121.63
2022-09-15T16:31:47.374Z,96126.38
2022-09-15T16:34:15.929Z,96139.41
2022-09-15T16:36:42.564Z,96159.16
2022-09-15T16:39:09.492Z,96130.91
2022-09-15T16:41:39.236Z,96145.47
2022-09-15T16:44:06.907Z,96152.97
2022-09-15T16:46:34.601Z,96133.84
2022-09-15T16:49:01.166Z,96142.97
2022-09-15T16:51:30.852Z,96124.88
2022-09-15T16:53:58.010Z,96162.59
2022-09-15T16:56:24.661Z,96148.66
2022-09-15T16:58:52.991Z,96143.38
2022-09-15T17:01:22.794Z,96154.50
2022-09-15T17:03:49.349Z,96162.09
2022-09-15T17:06:16.487Z,96167.78
2022-09-15T17:08:43.066Z,96171.97
2022-09-15T17:11:16.480Z,96162.03
2022-09-15T17:13:43.464Z,96170.09
2022-09-15T17:16:10.261Z,96186.50
2022-09-15T17:18:36.950Z,96196.47
2022-09-15T17:21:03.727Z,96163.88
2022-09-15T17:23:31.790Z,96163.69
2022-09-15T17:25:59.555Z,96187.91
2022-09-15T17:28:30.643Z,96188.38
2022-09-15T17:31:01.735Z,96182.16
2022-09-15T17:33:29.080Z,96191.22
2022-09-15T17:35:56.000Z,96173.53
2022-09-15T17:38:22.632Z,96184.19
2022-09-15T17:40:50.053Z,96201.03
2022-09-15T17:43:20.188Z,96200.78
2022-09-15T17:45:47.138Z,96214.78
2022-09-15T17:48:13.831Z,96208.22
2022-09-15T17:50:41.451Z,96215.69
2022-09-15T17:53:17.919Z,96221.34
2022-09-15T17:55:44.689Z,96208.34
2022-09-15T17:58:11.315Z,96256.84
2022-09-15T18:00:39.512Z,96249.44
2022-09-15T18:03:24.746Z,96210.69
2022-09-15T18:05:51.622Z,96265.22
2022-09-15T18:08:18.674Z,96268.28
2022-09-15T18:10:45.337Z,96251.44
2022-09-15T18:13:19.632Z,96235.50
2022-09-15T18:15:46.588Z,96249.06
2022-09-15T18:18:22.417Z,96230.97
2022-09-15T18:20:49.418Z,96233.22
2022-09-15T18:23:23.340Z,96274.34
2022-09-15T18:25:50.061Z,96261.97
2022-09-15T18:28:16.889Z,96264.75
2022-09-15T18:30:45.324Z,96273.56
2022-09-15T18:33:22.913Z,96281.00
2022-09-15T18:35:50.780Z,96269.59
2022-09-15T18:38:17.830Z,96280.34
2022-09-15T18:40:48.552Z,96283.59
2022-09-15T18:43:16.089Z,96269.59
2022-09-15T18:45:42.822Z,96287.56
2022-09-15T18:48:12.663Z,96277.84
2022-09-15T18:50:40.350Z,96293.97
2022-09-15T18:53:07.005Z,96277.31
2022-09-15T18:55:33.625Z,96318.09
2022-09-15T18:58:01.311Z,96304.56
2022-09-15T19:00:28.121Z,96294.94
2022-09-15T19:02:58.800Z,96278.16
2022-09-15T19:05:27.688Z,96305.91
2022-09-15T19:07:55.026Z,96297.34
2022-09-15T19:10:22.053Z,96301.75
2022-09-15T19:12:48.770Z,96314.31
2022-09-15T19:15:15.541Z,96322.91
2022-09-15T19:17:42.290Z,96333.84
2022-09-15T19:20:09.517Z,96304.03
2022-09-15T19:22:36.374Z,96317.09
2022-09-15T19:25:04.046Z,96321.41
2022-09-15T19:27:30.749Z,96325.91
2022-09-15T19:29:57.415Z,96339.59
2022-09-15T19:32:24.200Z,96329.66
2022-09-15T19:34:50.809Z,96318.38
2022-09-15T19:37:19.138Z,96327.06
2022-09-15T19:39:46.331Z,96315.53
2022-09-15T19:42:13.197Z,96316.19
2022-09-15T19:44:41.032Z,96300.38
2022-09-15T19:47:07.812Z,96293.84
2022-09-15T19:49:34.541Z,96321.91
2022-09-15T19:52:01.177Z,96341.09
2022-09-15T19:54:28.637Z,96344.81
2022-09-15T19:56:55.287Z,96357.88
2022-09-15T19:59:22.077Z,96350.88
2022-09-15T20:01:48.688Z,96328.94
2022-09-15T20:04:15.409Z,96369.72
2022-09-15T20:06:42.414Z,96368.84
2022-09-15T20:09:09.156Z,96368.31
2022-09-15T20:11:35.998Z,96377.28
2022-09-15T20:14:02.925Z,96364.69
2022-09-15T20:16:29.569Z,96364.59
2022-09-15T20:18:56.233Z,96377.66
2022-09-15T20:21:56.082Z,96387.06
2022-09-15T20:24:22.928Z,96354.28
2022-09-15T20:26:49.510Z,96396.50
2022-09-15T20:29:16.253Z,96379.59
2022-09-15T20:31:42.924Z,96359.91
2022-09-15T20:34:09.488Z,96380.00
2022-09-15T20:36:36.819Z,96382.84
2022-09-15T20:39:05.283Z,96382.84
2022-09-15T20:41:31.863Z,96398.16
2022-09-15T20:43:58.504Z,96374.13
2022-09-15T20:46:25.168Z,96384.28
2022-09-15T20:48:52.013Z,96388.31
2022-09-15T20:51:23.158Z,96402.81
2022-09-15T20:53:51.176Z,96424.44
2022-09-15T20:56:18.130Z,96391.81
2022-09-15T20:58:44.753Z,96396.94
2022-09-15T21:01:36.363Z,96404.91
2022-09-15T21:04:03.350Z,96393.94
2022-09-15T21:06:30.125Z,96385.97
2022-09-15T21:08:56.951Z,96426.56
2022-09-15T21:11:24.161Z,96416.38
2022-09-15T21:13:50.857Z,96407.66
2022-09-15T21:16:19.206Z,96411.78
2022-09-15T21:18:46.297Z,96395.75
2022-09-15T21:21:13.764Z,96422.66
2022-09-15T21:23:48.137Z,96389.25
2022-09-15T21:26:16.590Z,96421.69
2022-09-15T21:28:43.477Z,96413.75
2022-09-15T21:31:13.749Z,96403.56
2022-09-15T21:33:40.351Z,96408.97
2022-09-15T21:36:08.832Z,96412.16
2022-09-15T21:38:36.156Z,96416.00
2022-09-15T21:41:02.993Z,96416.94
2022-09-15T21:43:30.617Z,96404.38
2022-09-15T21:45:57.826Z,96392.75
2022-09-15T21:48:25.217Z,96374.19
2022-09-15T21:50:52.328Z,96364.47
2022-09-15T21:53:19.069Z,96406.31
2022-09-15T21:55:46.798Z,96393.41
2022-09-15T21:58:13.464Z,96371.97
2022-09-15T22:00:40.220Z,96373.72
2022-09-15T22:03:07.127Z,96372.91
2022-09-15T22:05:33.761Z,96406.31
2022-09-15T22:08:04.676Z,96387.53
2022-09-15T22:10:31.694Z,96410.75
2022-09-15T22:12:58.356Z,96413.63
2022-09-15T22:15:25.017Z,96409.03
2022-09-15T22:17:52.251Z,96426.66
2022-09-15T22:20:19.026Z,96441.75
2022-09-15T22:22:45.632Z,96424.59
2022-09-15T22:25:12.282Z,96394.69
2022-09-15T22:27:39.021Z,96420.75
2022-09-15T22:30:06.415Z,96431.41
2022-09-15T22:32:33.108Z,96404.22
2022-09-15T22:34:59.720Z,96403.44
2022-09-15T22:37:26.333Z,96402.47
2022-09-15T22:39:59.514Z,96410.75
2022-09-15T22:42:26.534Z,96393.59
2022-09-15T22:44:53.192Z,96399.63
2022-09-15T22:47:19.866Z,96410.59
2022-09-15T22:49:46.499Z,96392.63
2022-09-15T22:52:13.022Z,96391.50
2022-09-15T22:54:39.737Z,96387.00
2022-09-15T22:57:06.368Z,96395.28
2022-09-15T22:59:32.990Z,96389.28
2022-09-15T23:01:59.697Z,96387.06
2022-09-15T23:04:26.446Z,96402.28
2022-09-15T23:06:53.136Z,96400.69
2022-09-15T23:09:19.766Z,96391.94
2022-09-15T23:11:46.377Z,96399.09
2022-09-15T23:14:15.769Z,96378.56
2022-09-15T23:16:42.876Z,96379.69
2022-09-15T23:19:12.222Z,96375.22
2022-09-15T23:21:38.953Z,96380.44
2022-09-15T23:24:05.700Z,96374.72
2022-09-15T23:26:32.393Z,96410.31
2022-09-15T23:28:58.997Z,96378.06
2022-09-15T23:31:25.671Z,96382.34
2022-09-15T23:33:52.604Z,96361.34
2022-09-15T23:36:19.244Z,96420.09
2022-09-15T23:38:45.875Z,96400.56
2022-09-15T23:41:12.702Z,96384.19
2022-09-15T23:43:39.333Z,96376.41
2022-09-15T23:46:05.991Z,96390.84
2022-09-15T23:48:32.619Z,96396.56
2022-09-15T23:50:59.664Z,96373.22
2022-09-15T23:53:26.366Z,96380.66
2022-09-15T23:55:52.992Z,96365.47
2022-09-15T23:58:19.666Z,96377.66
